Time;durP1;ratioP1;P1;durP2;ratioP2;P2;SDS_P1;SDS_P2;PMS_P1;PMS_P2;Temp;Humidity;BMP_temperature;BMP_pressure;BME280_temperature;BME280_humidity;BME280_pressure;Samples;Min_cycle;Max_cycle;Signal;HPM_P1;HPM_P2
2022/06/23 00:15:16;;;;;;;8.90;6.13;;;;;;;16.31;96.49;100230.66;739607;1155;115745;-71
2022/06/23 00:30:27;;;;;;;12.33;6.93;;;;;;;16.05;97.44;100244.21;740036;1153;114123;-71
2022/06/23 00:45:35;;;;;;;8.70;5.23;;;;;;;15.89;96.81;100247.72;739617;1155;114968;-71
2022/06/23 01:00:42;;;;;;;10.70;5.00;;;;;;;15.71;97.91;100248.74;740028;1153;115238;-71
2022/06/23 01:15:51;;;;;;;12.78;5.73;;;;;;;15.57;97.71;100244.99;739921;1153;115046;-71
2022/06/23 01:31:10;;;;;;;11.15;4.95;;;;;;;15.39;97.96;100247.02;739745;1153;115139;-71
2022/06/23 01:46:22;;;;;;;10.87;5.60;;;;;;;15.27;98.39;100255.27;739817;1155;115331;-70
2022/06/23 02:01:56;;;;;;;8.98;5.65;;;;;;;15.19;98.30;100250.00;739804;1153;115824;-71
2022/06/23 02:17:10;;;;;;;11.13;6.55;;;;;;;15.06;98.48;100266.34;739717;1155;115646;-70
2022/06/23 02:32:18;;;;;;;13.13;7.35;;;;;;;14.93;98.74;100274.75;739654;1153;114978;-70
2022/06/23 02:47:26;;;;;;;12.97;6.80;;;;;;;14.95;98.71;100288.63;739833;1153;115752;-70
2022/06/23 03:02:41;;;;;;;12.53;6.08;;;;;;;14.97;99.19;100296.39;739757;1155;115893;-70
2022/06/23 03:17:52;;;;;;;13.53;7.28;;;;;;;15.08;99.57;100306.61;739869;1155;115153;-70
2022/06/23 03:33:00;;;;;;;14.98;7.30;;;;;;;15.35;99.49;100315.23;739897;1155;114908;-71
2022/06/23 03:48:05;;;;;;;16.23;8.10;;;;;;;15.72;100.00;100320.98;740021;1153;114912;-72
2022/06/23 04:03:44;;;;;;;13.98;8.28;;;;;;;16.22;100.00;100326.97;739983;1154;115845;-71
2022/06/23 04:18:47;;;;;;;13.15;8.10;;;;;;;16.82;100.00;100348.56;740162;1155;114745;-74
2022/06/23 04:33:49;;;;;;;14.33;8.18;;;;;;;17.43;98.94;100365.39;740401;1155;115651;-72
2022/06/23 04:48:54;;;;;;;10.58;6.65;;;;;;;18.17;97.98;100382.45;740786;1155;115042;-72
2022/06/23 05:03:59;;;;;;;10.18;4.98;;;;;;;19.06;97.10;100397.48;740848;1153;114547;-72
2022/06/23 05:19:06;;;;;;;;;;;;;;;19.66;95.10;100409.70;741146;1153;114553;-70
2022/06/23 05:34:18;;;;;;;7.33;3.60;;;;;;;20.22;93.33;100436.36;741654;1155;100626;-77
2022/06/23 05:49:27;;;;;;;8.93;3.80;;;;;;;20.80;91.90;100418.42;741624;1155;115599;-77
2022/06/23 06:04:35;;;;;;;6.93;2.83;;;;;;;21.23;89.38;100423.47;741924;1155;114654;-78
2022/06/23 06:19:38;;;;;;;5.80;3.33;;;;;;;21.97;87.46;100440.38;741394;1153;114492;-74
2022/06/23 06:34:53;;;;;;;4.90;2.53;;;;;;;22.36;84.24;100467.30;742773;1153;114321;-75
2022/06/23 06:50:02;;;;;;;4.95;2.73;;;;;;;22.87;81.59;100460.33;739870;1153;114356;-74
2022/06/23 07:05:26;;;;;;;3.13;2.58;;;;;;;23.25;79.39;100459.55;740426;1155;114361;-75
2022/06/23 07:20:41;;;;;;;4.80;2.58;;;;;;;23.78;77.51;100476.30;739885;1153;115587;-75
2022/06/23 07:36:01;;;;;;;7.38;3.18;;;;;;;24.21;76.88;100483.58;739896;1155;114706;-75
2022/06/23 07:51:06;;;;;;;11.20;3.85;;;;;;;24.99;72.94;100467.89;739643;1154;115304;-74
2022/06/23 08:06:13;;;;;;;2.88;2.35;;;;;;;25.96;70.91;100468.73;739845;1155;115520;-75
2022/06/23 08:21:27;;;;;;;5.23;3.07;;;;;;;26.86;68.83;100472.08;739819;1154;114825;-75
2022/06/23 08:36:42;;;;;;;3.35;2.40;;;;;;;27.40;68.70;100477.95;739705;1155;115544;-75
2022/06/23 08:52:28;;;;;;;3.98;1.83;;;;;;;27.44;67.47;100499.00;739667;1155;115614;-75
2022/06/23 09:07:54;;;;;;;4.70;2.70;;;;;;;28.15;65.86;100479.67;739184;1155;114366;-75
2022/06/23 09:23:08;;;;;;;5.28;2.25;;;;;;;27.85;64.65;100487.03;739945;1155;115395;-75
2022/06/23 09:38:19;;;;;;;3.53;2.60;;;;;;;28.58;62.62;100488.89;739606;1154;115628;-76
2022/06/23 09:53:41;;;;;;;4.80;1.70;;;;;;;30.51;61.82;100502.02;740009;1153;114339;-76
2022/06/23 10:08:50;;;;;;;4.40;2.00;;;;;;;29.59;59.63;100503.00;739687;1153;114594;-75
2022/06/23 10:24:23;;;;;;;2.78;1.98;;;;;;;30.15;58.94;100508.02;739982;1155;114479;-75
2022/06/23 10:40:02;;;;;;;2.78;1.70;;;;;;;29.63;58.77;100489.76;740065;1153;114217;-75
2022/06/23 10:55:39;;;;;;;5.38;2.00;;;;;;;29.47;58.24;100505.03;739775;1155;114257;-76
2022/06/23 11:10:57;;;;;;;3.38;1.40;;;;;;;29.38;58.10;100497.39;740053;1155;114560;-75
2022/06/23 11:26:14;;;;;;;3.83;1.90;;;;;;;30.94;57.08;100491.90;739988;1153;114646;-74
2022/06/23 11:41:50;;;;;;;3.00;2.07;;;;;;;31.88;56.03;100480.09;740235;1155;114069;-76
2022/06/23 11:57:16;;;;;;;1.88;1.78;;;;;;;31.96;55.15;100484.95;740987;1153;114835;-70
2022/06/23 12:12:21;;;;;;;3.28;1.55;;;;;;;33.07;53.74;100487.84;740140;1153;114100;-74
2022/06/23 12:27:34;;;;;;;5.05;3.68;;;;;;;32.06;52.95;100488.73;741207;1153;114849;-77
2022/06/23 12:42:45;;;;;;;2.98;2.03;;;;;;;33.27;53.05;100482.31;744211;1153;114084;-77
2022/06/23 12:58:11;;;;;;;3.20;1.80;;;;;;;33.48;52.15;100465.83;743846;1155;114512;-76
2022/06/23 13:13:21;;;;;;;5.35;3.25;;;;;;;33.76;52.56;100483.27;741323;1152;114816;-76
2022/06/23 13:28:37;;;;;;;4.93;3.50;;;;;;;33.18;52.92;100462.25;741542;1153;115323;-72
2022/06/23 13:43:48;;;;;;;5.73;4.43;;;;;;;33.30;51.96;100449.13;740851;1153;115453;-72
2022/06/23 13:59:17;;;;;;;3.90;2.60;;;;;;;33.25;52.20;100451.05;741846;1153;116050;-72
2022/06/23 14:14:32;;;;;;;2.30;1.60;;;;;;;32.71;51.89;100437.24;741824;1155;115746;-71
2022/06/23 14:29:51;;;;;;;3.65;1.55;;;;;;;32.61;52.17;100429.14;741020;1155;115705;-71
2022/06/23 14:45:26;;;;;;;3.80;1.65;;;;;;;32.38;52.01;100423.29;741184;1155;114742;-69
2022/06/23 15:00:37;;;;;;;2.07;1.50;;;;;;;32.45;51.54;100421.07;741249;1155;114328;-70
2022/06/23 15:15:54;;;;;;;33.58;20.75;;;;;;;32.07;51.33;100404.40;740273;1153;115167;-70
2022/06/23 15:31:07;;;;;;;15.85;10.48;;;;;;;31.96;51.34;100400.88;740000;1153;115223;-71
2022/06/23 15:46:35;;;;;;;3.25;2.28;;;;;;;31.45;52.01;100395.53;739981;1155;115191;-71
2022/06/23 16:02:03;;;;;;;3.38;2.58;;;;;;;30.90;52.23;100390.63;739878;1153;115107;-71
2022/06/23 16:17:10;;;;;;;2.28;1.80;;;;;;;30.33;51.79;100384.23;740099;1155;115759;-71
2022/06/23 16:32:23;;;;;;;101.30;69.97;;;;;;;30.28;52.50;100390.43;740029;1153;115132;-71
2022/06/23 16:47:44;;;;;;;5.05;3.75;;;;;;;30.17;53.54;100391.45;739852;1155;114563;-70
2022/06/23 17:02:57;;;;;;;2.48;2.23;;;;;;;29.90;53.19;100392.41;740107;1154;115477;-71
2022/06/23 17:18:11;;;;;;;8.10;7.48;;;;;;;29.38;54.49;100400.14;740621;1155;114176;-71
2022/06/23 17:33:18;;;;;;;4.30;1.93;;;;;;;29.12;55.42;100400.98;740489;1153;114576;-73
2022/06/23 17:48:29;;;;;;;;;;;;;;;28.70;55.88;100397.88;740165;1153;114065;-72
2022/06/23 18:03:35;;;;;;;2.95;1.83;;;;;;;28.19;58.96;100392.66;741012;1155;101338;-72
2022/06/23 18:19:02;;;;;;;12.63;6.13;;;;;;;27.50;60.31;100387.60;741032;1154;114443;-73
2022/06/23 18:34:37;;;;;;;4.65;3.00;;;;;;;26.95;61.24;100406.05;741389;1155;115095;-72
2022/06/23 18:49:48;;;;;;;2.98;2.50;;;;;;;26.25;63.53;100424.02;741457;1153;114530;-73
2022/06/23 19:05:43;;;;;;;5.80;3.47;;;;;;;25.69;64.96;100432.39;741436;1155;115216;-72
2022/06/23 19:20:57;;;;;;;4.13;2.60;;;;;;;25.02;66.69;100441.44;742643;1155;115217;-72
2022/06/23 19:36:18;;;;;;;3.65;2.98;;;;;;;24.59;67.57;100442.36;743714;1155;115891;-70
2022/06/23 19:51:31;;;;;;;8.68;5.43;;;;;;;24.06;69.12;100441.07;741534;1153;114132;-70
2022/06/23 20:06:43;;;;;;;10.25;6.13;;;;;;;23.54;69.97;100463.48;740587;1155;115522;-70
2022/06/23 20:21:54;;;;;;;9.55;4.95;;;;;;;23.34;71.06;100468.16;740637;1153;114419;-70
2022/06/23 20:37:34;;;;;;;8.88;4.20;;;;;;;22.87;71.68;100465.68;740706;1155;114136;-70
2022/06/23 20:53:15;;;;;;;4.40;3.70;;;;;;;22.25;73.54;100474.88;741009;1153;114899;-69
2022/06/23 21:08:24;;;;;;;5.73;4.40;;;;;;;22.06;74.78;100470.38;740489;1155;115452;-70
2022/06/23 21:23:26;;;;;;;8.33;5.17;;;;;;;21.94;75.24;100475.52;740310;1154;114052;-70
2022/06/23 21:38:51;;;;;;;9.85;5.30;;;;;;;21.85;75.72;100482.09;740014;1153;114707;-70
2022/06/23 21:54:09;;;;;;;13.05;7.25;;;;;;;21.62;77.32;100488.65;740395;1154;114612;-70
2022/06/23 22:09:36;;;;;;;13.43;7.73;;;;;;;21.36;78.94;100511.54;740248;1155;114842;-70
2022/06/23 22:40:19;;;;;;;24.05;10.83;;;;;;;20.55;82.89;100510.33;740328;1154;115552;-70
2022/06/23 22:55:21;;;;;;;25.05;10.60;;;;;;;20.19;84.33;100502.49;740622;1153;115747;-69
2022/06/23 23:10:48;;;;;;;19.53;9.93;;;;;;;20.03;85.18;100508.92;740490;1153;115426;-69
2022/06/23 23:25:51;;;;;;;14.38;8.58;;;;;;;19.62;86.67;100508.55;740233;1155;114346;-70
2022/06/23 23:40:55;;;;;;;12.20;8.48;;;;;;;19.33;87.65;100516.60;740743;1155;115584;-69
2022/06/23 23:55:58;;;;;;;12.55;8.90;;;;;;;19.10;88.75;100539.65;740666;1153;115489;-69
